Time;durP1;ratioP1;P1;durP2;ratioP2;P2;SDS_P1;SDS_P2;PMS_P1;PMS_P2;Temp;Humidity;BMP_temperature;BMP_pressure;BME280_temperature;BME280_humidity;BME280_pressure;Samples;Min_cycle;Max_cycle;Signal;HPM_P1;HPM_P2
2022/08/25 00:01:20;;;;;;;;;;;;;;;20.18;64.33;101092.22;4867174;28;98490;-61
2022/08/25 00:03:46;;;;;;;;;;;;;;;20.15;64.38;101088.19;4865206;28;98863;-61
2022/08/25 00:06:12;;;;;;;;;;;;;;;20.14;64.47;101099.44;4879491;28;98350;-61
2022/08/25 00:08:39;;;;;;;;;;;;;;;20.11;64.60;101096.22;4840364;28;98020;-61
2022/08/25 00:11:06;;;;;;;;;;;;;;;20.09;64.53;101087.53;4858241;28;109931;-61
2022/08/25 00:13:32;;;;;;;;;;;;;;;20.08;64.58;101087.81;4846411;28;99801;-68
2022/08/25 00:15:58;;;;;;;;;;;;;;;20.07;64.66;101091.69;4872993;28;98274;-68
2022/08/25 00:18:25;;;;;;;;;;;;;;;20.01;64.56;101077.34;4865135;28;97904;-68
2022/08/25 00:20:51;;;;;;;;;;;;;;;20.01;64.59;101082.81;4841656;28;99316;-68
2022/08/25 00:23:18;;;;;;;;;;;;;;;19.99;64.50;101085.06;4861973;28;98841;-62
2022/08/25 00:25:45;;;;;;;;;;;;;;;19.97;64.61;101083.78;4849906;28;98615;-61
2022/08/25 00:28:11;;;;;;;;;;;;;;;19.95;64.74;101083.28;4843423;28;98612;-66
2022/08/25 00:30:38;;;;;;;;;;;;;;;19.93;64.63;101091.00;4856534;28;98357;-68
2022/08/25 00:33:04;;;;;;;;;;;;;;;19.89;64.88;101079.88;4833065;28;98647;-61
2022/08/25 00:35:30;;;;;;;;;;;;;;;19.85;64.79;101085.19;4866905;28;99268;-61
2022/08/25 00:37:56;;;;;;;;;;;;;;;19.82;64.93;101083.06;4837854;28;98361;-68
2022/08/25 00:40:24;;;;;;;;;;;;;;;19.81;64.76;101077.91;4888816;28;98095;-68
2022/08/25 00:42:50;;;;;;;;;;;;;;;19.78;64.82;101073.88;4820025;28;98030;-68
2022/08/25 00:45:17;;;;;;;;;;;;;;;19.76;65.01;101078.03;4890711;28;99628;-61
2022/08/25 00:47:43;;;;;;;;;;;;;;;19.74;64.90;101080.28;4830010;28;99055;-68
2022/08/25 00:50:09;;;;;;;;;;;;;;;19.71;65.01;101084.44;4880577;28;104203;-68
2022/08/25 00:52:40;;;;;;;;;;;;;;;19.70;64.99;101071.09;4833320;28;99519;-61
2022/08/25 00:55:17;;;;;;;;;;;;;;;19.67;65.02;101079.94;4839504;28;98295;-61
2022/08/25 00:57:47;;;;;;;;;;;;;;;19.65;65.11;101073.94;4866529;28;97999;-68
2022/08/25 01:00:19;;;;;;;;;;;;;;;19.62;65.00;101080.88;4850632;28;97948;-61
2022/08/25 01:02:45;;;;;;;;;;;;;;;19.59;65.02;101073.25;4827553;28;100049;-68
2022/08/25 01:05:14;;;;;;;;;;;;;;;19.59;65.21;101073.25;4843829;28;98335;-68
2022/08/25 01:07:40;;;;;;;;;;;;;;;19.57;65.10;101070.84;4834976;28;98448;-68
2022/08/25 01:10:07;;;;;;;;;;;;;;;19.56;65.25;101071.13;4841549;28;98157;-61
2022/08/25 01:12:33;;;;;;;;;;;;;;;19.55;65.06;101069.53;4866502;28;104802;-61
2022/08/25 01:14:59;;;;;;;;;;;;;;;19.53;65.25;101064.41;4822417;28;99930;-61
2022/08/25 01:17:31;;;;;;;;;;;;;;;19.52;65.27;101062.75;4882397;28;98352;-61
2022/08/25 01:19:58;;;;;;;;;;;;;;;19.50;65.10;101061.47;4860810;28;99997;-68
2022/08/25 01:22:25;;;;;;;;;;;;;;;19.49;65.24;101063.41;4847730;28;98121;-61
2022/08/25 01:24:58;;;;;;;;;;;;;;;19.48;65.08;101066.44;4846908;28;99617;-68
2022/08/25 01:27:24;;;;;;;;;;;;;;;19.46;65.19;101060.50;4864353;28;98284;-68
2022/08/25 01:29:50;;;;;;;;;;;;;;;19.45;65.11;101064.31;4864621;28;118966;-61
2022/08/25 01:32:25;;;;;;;;;;;;;;;19.42;65.07;101059.50;4831197;28;126406;-68
2022/08/25 01:34:51;;;;;;;;;;;;;;;19.38;65.20;101057.38;4839672;28;98254;-65
2022/08/25 01:37:19;;;;;;;;;;;;;;;19.38;65.28;101070.25;4844721;28;98114;-68
2022/08/25 01:39:47;;;;;;;;;;;;;;;19.35;65.39;101059.94;4847721;28;98507;-68
2022/08/25 01:42:27;;;;;;;;;;;;;;;19.33;65.08;101062.16;4888937;28;99006;-62
2022/08/25 01:44:53;;;;;;;;;;;;;;;19.29;65.37;101063.91;4844084;28;98787;-61
2022/08/25 01:47:19;;;;;;;;;;;;;;;19.25;65.27;101071.09;4858508;28;98334;-68
2022/08/25 01:49:45;;;;;;;;;;;;;;;19.22;65.40;101075.28;4844423;28;98291;-68
2022/08/25 01:52:28;;;;;;;;;;;;;;;19.19;65.45;101073.16;4849139;28;98236;-69
2022/08/25 01:54:55;;;;;;;;;;;;;;;19.17;65.27;101069.94;4853991;28;98352;-69
2022/08/25 01:57:23;;;;;;;;;;;;;;;19.16;65.46;101073.78;4877127;28;98431;-61
2022/08/25 01:59:49;;;;;;;;;;;;;;;19.12;65.50;101070.84;4863821;28;99477;-69
2022/08/25 02:02:16;;;;;;;;;;;;;;;19.11;65.46;101074.72;4848904;28;99899;-68
2022/08/25 02:04:42;;;;;;;;;;;;;;;19.07;65.40;101067.47;4846644;28;98251;-68
2022/08/25 02:07:08;;;;;;;;;;;;;;;19.05;65.51;101077.88;4833760;28;99118;-62
2022/08/25 02:09:37;;;;;;;;;;;;;;;19.03;65.50;101069.19;4848720;28;98163;-62
2022/08/25 02:12:04;;;;;;;;;;;;;;;19.00;65.64;101076.06;4848273;28;97877;-69
2022/08/25 02:14:32;;;;;;;;;;;;;;;18.98;65.65;101070.13;4882084;28;98028;-68
2022/08/25 02:16:58;;;;;;;;;;;;;;;18.97;65.71;101067.69;4859553;28;98238;-61
2022/08/25 02:19:24;;;;;;;;;;;;;;;18.97;65.52;101070.41;4848879;28;100344;-67
2022/08/25 02:21:50;;;;;;;;;;;;;;;18.94;65.75;101068.28;4845557;28;97937;-61
2022/08/25 02:24:17;;;;;;;;;;;;;;;18.91;65.79;101056.09;4858556;28;99824;-61
2022/08/25 02:26:44;;;;;;;;;;;;;;;18.91;65.77;101063.47;4872924;28;98011;-61
2022/08/25 02:29:10;;;;;;;;;;;;;;;18.90;65.72;101062.63;4849908;28;97954;-68
2022/08/25 02:31:36;;;;;;;;;;;;;;;18.92;65.63;101062.34;4862691;28;98495;-61
2022/08/25 02:34:02;;;;;;;;;;;;;;;18.92;65.86;101056.88;4844521;28;98229;-68
2022/08/25 02:36:30;;;;;;;;;;;;;;;18.91;65.81;101056.09;4838154;28;99008;-68
2022/08/25 02:38:57;;;;;;;;;;;;;;;18.91;65.79;101056.09;4868723;28;98026;-62
2022/08/25 02:41:23;;;;;;;;;;;;;;;18.88;65.78;101046.56;4881849;28;99572;-62
2022/08/25 02:43:54;;;;;;;;;;;;;;;18.89;65.66;101050.91;4852688;28;99275;-68
2022/08/25 02:46:20;;;;;;;;;;;;;;;18.89;65.65;101047.38;4842919;28;98589;-61
2022/08/25 02:48:46;;;;;;;;;;;;;;;18.86;65.84;101046.09;4863890;28;98493;-68
2022/08/25 02:51:12;;;;;;;;;;;;;;;18.86;65.59;101045.25;4876383;28;98769;-68
2022/08/25 02:53:44;;;;;;;;;;;;;;;18.85;65.77;101047.19;4864912;28;99949;-68
2022/08/25 02:56:11;;;;;;;;;;;;;;;18.83;65.70;101046.69;4874079;28;98708;-61
2022/08/25 02:58:37;;;;;;;;;;;;;;;18.80;65.85;101044.59;4846441;28;99104;-61
2022/08/25 03:01:04;;;;;;;;;;;;;;;18.77;65.65;101041.66;4840229;28;98190;-61
2022/08/25 03:03:30;;;;;;;;;;;;;;;18.75;65.75;101038.44;4832027;28;99785;-61
2022/08/25 03:05:56;;;;;;;;;;;;;;;18.72;65.75;101039.06;4879968;28;98588;-61
2022/08/25 03:08:23;;;;;;;;;;;;;;;18.72;65.97;101047.25;4847803;28;98425;-68
2022/08/25 03:10:49;;;;;;;;;;;;;;;18.70;66.01;101042.06;4863836;28;98196;-68
2022/08/25 03:13:16;;;;;;;;;;;;;;;18.69;65.89;101045.09;4852003;28;98242;-61
2022/08/25 03:15:45;;;;;;;;;;;;;;;18.67;65.79;101039.94;4853872;28;98240;-68
2022/08/25 03:18:12;;;;;;;;;;;;;;;18.63;66.17;101030.75;4877033;28;98123;-61
2022/08/25 03:20:38;;;;;;;;;;;;;;;18.60;65.94;101039.56;4859767;28;99227;-69
2022/08/25 03:23:04;;;;;;;;;;;;;;;18.60;65.91;101042.28;4862821;28;112445;-61
2022/08/25 03:28:16;;;;;;;;;;;;;;;18.56;65.85;101028.44;4862401;28;98150;-69
2022/08/25 03:30:43;;;;;;;;;;;;;;;18.54;65.91;101036.13;4845731;28;98221;-68
2022/08/25 03:33:09;;;;;;;;;;;;;;;18.53;66.08;101028.25;4844639;28;99450;-61
2022/08/25 03:35:35;;;;;;;;;;;;;;;18.51;66.06;101034.03;4840043;28;98385;-61
2022/08/25 03:38:01;;;;;;;;;;;;;;;18.48;65.99;101040.09;4851211;28;98369;-67
2022/08/25 03:40:27;;;;;;;;;;;;;;;18.46;66.14;101042.31;4867810;28;99501;-68
2022/08/25 03:42:55;;;;;;;;;;;;;;;18.45;66.11;101037.16;4868816;28;97943;-68
2022/08/25 03:45:21;;;;;;;;;;;;;;;18.44;65.97;101043.75;4850007;28;99119;-61
2022/08/25 03:47:47;;;;;;;;;;;;;;;18.44;66.17;101043.75;4853529;28;98813;-61
2022/08/25 03:50:14;;;;;;;;;;;;;;;18.42;65.96;101038.56;4868403;28;98161;-69
2022/08/25 03:52:40;;;;;;;;;;;;;;;18.44;66.04;101041.00;4850008;28;99353;-61
2022/08/25 03:55:08;;;;;;;;;;;;;;;18.42;65.97;101043.22;4869745;28;98348;-61
2022/08/25 03:57:34;;;;;;;;;;;;;;;18.42;65.87;101037.78;4838684;28;98802;-61
2022/08/25 04:00:00;;;;;;;;;;;;;;;18.49;66.01;101041.69;4872109;28;97977;-68
2022/08/25 04:02:28;;;;;;;;;;;;;;;18.58;65.80;101039.84;4889195;28;98838;-68
2022/08/25 04:04:54;;;;;;;;;;;;;;;18.67;65.54;101039.13;4883282;28;98218;-61
2022/08/25 04:07:20;;;;;;;;;;;;;;;18.74;65.63;101040.34;4886824;28;100006;-62
2022/08/25 04:09:58;;;;;;;;;;;;;;;18.79;65.43;101040.25;4869492;28;99629;-68
2022/08/25 04:12:24;;;;;;;;;;;;;;;18.84;65.42;101042.84;4851082;28;101033;-61
2022/08/25 04:14:50;;;;;;;;;;;;;;;18.90;65.21;101038.06;4846511;28;99265;-61
2022/08/25 04:17:22;;;;;;;;;;;;;;;18.94;65.17;101040.97;4890580;28;123782;-68
2022/08/25 04:19:49;;;;;;;;;;;;;;;18.96;65.21;101036.84;4860857;28;127173;-61
2022/08/25 04:22:16;;;;;;;;;;;;;;;19.00;65.18;101039.75;4858291;28;98282;-61
2022/08/25 04:24:42;;;;;;;;;;;;;;;19.01;65.08;101036.69;4858923;28;97881;-61
2022/08/25 04:27:08;;;;;;;;;;;;;;;19.04;65.30;101033.34;4858713;28;102521;-61
2022/08/25 04:29:34;;;;;;;;;;;;;;;19.06;64.99;101033.03;4865348;28;99629;-61
2022/08/25 04:32:00;;;;;;;;;;;;;;;19.07;64.88;101037.41;4848107;28;126442;-61
2022/08/25 04:34:27;;;;;;;;;;;;;;;19.07;64.87;101029.22;4846010;28;98746;-61
2022/08/25 04:36:54;;;;;;;;;;;;;;;19.08;64.80;101039.00;4860471;28;98092;-61
2022/08/25 04:39:20;;;;;;;;;;;;;;;19.09;64.88;101037.88;4835852;28;98034;-68
2022/08/25 04:41:47;;;;;;;;;;;;;;;19.11;65.12;101041.94;4871126;28;98503;-61
2022/08/25 04:44:14;;;;;;;;;;;;;;;19.11;64.78;101041.13;4830238;28;97964;-61
2022/08/25 04:46:40;;;;;;;;;;;;;;;19.11;64.74;101043.84;4830517;28;98639;-61
2022/08/25 04:49:06;;;;;;;;;;;;;;;19.15;64.76;101049.50;4847911;28;98207;-61
2022/08/25 04:51:39;;;;;;;;;;;;;;;19.15;64.74;101050.31;4869579;28;98374;-61
2022/08/25 04:54:10;;;;;;;;;;;;;;;19.15;64.79;101049.50;4860332;28;98724;-61
2022/08/25 04:56:40;;;;;;;;;;;;;;;19.15;64.68;101050.31;4836765;28;98500;-61
2022/08/25 04:59:08;;;;;;;;;;;;;;;19.18;64.59;101046.97;4861970;28;100367;-61
2022/08/25 05:01:35;;;;;;;;;;;;;;;19.20;64.75;101052.91;4846305;28;97980;-61
2022/08/25 05:04:03;;;;;;;;;;;;;;;19.19;64.72;101051.31;4849478;28;98409;-61
2022/08/25 05:06:29;;;;;;;;;;;;;;;19.19;64.69;101056.78;4881359;28;97833;-61
2022/08/25 05:08:56;;;;;;;;;;;;;;;19.20;64.80;101054.84;4869200;28;98177;-61
2022/08/25 05:11:24;;;;;;;;;;;;;;;19.22;64.91;101055.34;4825313;28;98592;-61
2022/08/25 05:13:51;;;;;;;;;;;;;;;19.26;64.79;101059.06;4849032;28;98834;-61
2022/08/25 05:16:21;;;;;;;;;;;;;;;19.31;64.90;101057.00;4849398;28;101616;-62
2022/08/25 05:18:50;;;;;;;;;;;;;;;19.36;64.83;101054.13;4853912;28;98630;-61
2022/08/25 05:21:20;;;;;;;;;;;;;;;19.42;65.02;101057.56;4872475;28;98587;-61
2022/08/25 05:23:47;;;;;;;;;;;;;;;19.50;65.01;101058.75;4846966;28;98532;-61
2022/08/25 05:26:19;;;;;;;;;;;;;;;19.57;65.08;101059.91;4830820;28;98370;-61
2022/08/25 05:28:46;;;;;;;;;;;;;;;19.67;64.80;101060.78;4871429;28;98146;-68
2022/08/25 05:31:12;;;;;;;;;;;;;;;19.73;64.92;101064.97;4872620;28;98819;-68
2022/08/25 05:33:38;;;;;;;;;;;;;;;19.77;65.09;101055.84;4844204;28;98038;-61
2022/08/25 05:36:05;;;;;;;;;;;;;;;19.81;65.09;101053.31;4889121;28;98356;-68
2022/08/25 05:38:31;;;;;;;;;;;;;;;19.91;65.03;101054.94;4860431;28;98584;-68
2022/08/25 05:40:58;;;;;;;;;;;;;;;20.01;64.85;101058.22;4889721;28;98239;-61
2022/08/25 05:43:24;;;;;;;;;;;;;;;20.10;64.79;101050.00;4853893;28;98244;-61
2022/08/25 05:45:53;;;;;;;;;;;;;;;20.20;64.84;101057.13;4875636;28;98014;-61
2022/08/25 05:48:19;;;;;;;;;;;;;;;20.31;64.74;101055.69;4875488;28;99428;-61
2022/08/25 05:50:52;;;;;;;;;;;;;;;20.41;64.63;101051.88;4846313;28;97957;-68
2022/08/25 05:53:19;;;;;;;;;;;;;;;20.49;64.68;101049.16;4847237;28;98336;-61
2022/08/25 05:55:45;;;;;;;;;;;;;;;20.59;64.48;101053.53;4820064;28;99375;-68
2022/08/25 05:58:11;;;;;;;;;;;;;;;20.70;64.45;101049.34;4861099;28;98099;-68
2022/08/25 06:00:39;;;;;;;;;;;;;;;20.80;64.38;101051.78;4841041;28;98454;-61
2022/08/25 06:03:05;;;;;;;;;;;;;;;20.92;64.25;101044.84;4876856;28;98058;-68
2022/08/25 06:05:31;;;;;;;;;;;;;;;21.03;64.30;101040.66;4870129;28;98078;-68
2022/08/25 06:07:57;;;;;;;;;;;;;;;21.12;64.14;101038.69;4839172;28;113055;-68
2022/08/25 06:10:24;;;;;;;;;;;;;;;21.15;64.22;101038.06;4820999;28;98494;-68
2022/08/25 06:12:50;;;;;;;;;;;;;;;21.23;64.33;101042.72;4860528;28;97868;-61
2022/08/25 06:15:19;;;;;;;;;;;;;;;21.32;64.16;101043.53;4849970;28;97972;-61
2022/08/25 06:17:46;;;;;;;;;;;;;;;21.44;64.09;101039.31;4862683;28;98360;-67
2022/08/25 06:20:14;;;;;;;;;;;;;;;21.52;64.09;101042.03;4867891;28;97968;-68
2022/08/25 06:22:40;;;;;;;;;;;;;;;21.59;64.07;101038.78;4832328;28;97993;-61
2022/08/25 06:25:08;;;;;;;;;;;;;;;21.66;64.15;101041.84;4876273;28;98455;-68
2022/08/25 06:27:34;;;;;;;;;;;;;;;21.83;63.74;101049.19;4861537;28;98023;-68
2022/08/25 06:30:03;;;;;;;;;;;;;;;21.96;63.52;101045.41;4832470;28;98038;-61
2022/08/25 06:32:34;;;;;;;;;;;;;;;22.23;63.41;101041.41;4844103;28;98284;-61
2022/08/25 06:35:02;;;;;;;;;;;;;;;22.48;62.94;101045.16;4869048;28;98077;-68
2022/08/25 06:37:28;;;;;;;;;;;;;;;22.72;62.53;101051.94;4844960;28;99655;-61
2022/08/25 06:39:54;;;;;;;;;;;;;;;22.91;62.37;101049.53;4844013;28;98218;-61
2022/08/25 06:42:20;;;;;;;;;;;;;;;23.09;62.38;101049.38;4837725;28;99160;-68
2022/08/25 06:44:46;;;;;;;;;;;;;;;23.25;62.24;101047.59;4829075;28;99642;-60
2022/08/25 06:47:14;;;;;;;;;;;;;;;23.42;62.00;101049.34;4845632;28;98770;-61
2022/08/25 06:49:41;;;;;;;;;;;;;;;23.62;61.66;101045.75;4869990;28;98023;-68
2022/08/25 06:52:07;;;;;;;;;;;;;;;23.87;61.46;101045.78;4828368;28;98329;-68
2022/08/25 06:54:33;;;;;;;;;;;;;;;24.12;60.96;101046.59;4860743;28;103171;-61
2022/08/25 06:56:59;;;;;;;;;;;;;;;24.45;60.74;101046.47;4859307;28;99726;-61
2022/08/25 06:59:25;;;;;;;;;;;;;;;24.77;60.21;101052.94;4855583;28;98462;-60
2022/08/25 07:01:52;;;;;;;;;;;;;;;25.00;60.07;101044.94;4869946;28;98590;-61
2022/08/25 07:04:19;;;;;;;;;;;;;;;25.23;59.62;101042.44;4866019;28;98119;-61
2022/08/25 07:06:45;;;;;;;;;;;;;;;25.46;59.14;101039.88;4882313;28;98239;-60
2022/08/25 07:09:12;;;;;;;;;;;;;;;25.68;58.73;101044.78;4848593;28;99446;-68
2022/08/25 07:11:39;;;;;;;;;;;;;;;25.82;58.49;101043.56;4852703;28;98070;-68
2022/08/25 07:14:06;;;;;;;;;;;;;;;25.95;58.12;101042.31;4866257;28;98326;-68
2022/08/25 07:16:32;;;;;;;;;;;;;;;26.05;58.05;101039.00;4839883;28;97960;-61
2022/08/25 07:18:59;;;;;;;;;;;;;;;26.17;57.79;101035.34;4867551;28;98329;-61
2022/08/25 07:21:25;;;;;;;;;;;;;;;26.29;57.50;101032.47;4830122;28;98017;-61
2022/08/25 07:23:52;;;;;;;;;;;;;;;26.43;57.08;101035.53;4850796;28;100021;-60
2022/08/25 07:26:23;;;;;;;;;;;;;;;26.57;56.88;101029.56;4852406;28;98939;-61
2022/08/25 07:28:49;;;;;;;;;;;;;;;26.71;56.64;101029.03;4853731;28;98522;-61
2022/08/25 07:31:15;;;;;;;;;;;;;;;26.87;56.51;101029.75;4850145;28;98770;-61
2022/08/25 07:35:14;;;;;;;;;;;;;;;26.99;56.04;101020.53;4883104;28;98109;-61
2022/08/25 07:36:30;;;;;;;;;;;;;;;27.16;55.79;101022.88;4851070;28;99121;-61
2022/08/25 07:38:59;;;;;;;;;;;;;;;27.34;55.36;101019.63;4866105;28;98363;-61
2022/08/25 07:41:25;;;;;;;;;;;;;;;27.49;55.02;101021.47;4870579;28;98672;-61
2022/08/25 07:43:52;;;;;;;;;;;;;;;27.65;54.93;101015.81;4838210;28;98303;-61
2022/08/25 07:46:18;;;;;;;;;;;;;;;27.83;54.50;101024.44;4836941;28;98476;-62
2022/08/25 07:48:44;;;;;;;;;;;;;;;27.99;54.24;101022.31;4843829;28;97831;-61
2022/08/25 07:51:11;;;;;;;;;;;;;;;28.18;53.88;101015.03;4889356;28;97908;-61
2022/08/25 07:53:38;;;;;;;;;;;;;;;28.36;53.33;101022.47;4826089;28;98358;-61
2022/08/25 07:56:10;;;;;;;;;;;;;;;28.59;53.23;101016.03;4864027;28;97864;-61
2022/08/25 07:58:39;;;;;;;;;;;;;;;28.83;52.44;101012.75;4841380;28;98107;-61
2022/08/25 08:01:06;;;;;;;;;;;;;;;29.10;52.00;101021.81;4874084;28;98189;-61
2022/08/25 08:03:35;;;;;;;;;;;;;;;29.38;51.45;101017.72;4861878;28;97973;-61
2022/08/25 08:06:02;;;;;;;;;;;;;;;29.67;51.41;101010.50;4884489;28;98050;-61
2022/08/25 08:08:28;;;;;;;;;;;;;;;29.99;50.60;101010.72;4881035;28;97794;-68
2022/08/25 08:10:54;;;;;;;;;;;;;;;30.33;49.98;101010.53;4867233;28;98026;-69
2022/08/25 08:13:22;;;;;;;;;;;;;;;30.71;49.41;101009.13;4849021;28;100490;-68
2022/08/25 08:15:48;;;;;;;;;;;;;;;31.12;48.96;101008.06;4866939;28;98399;-69
2022/08/25 08:18:15;;;;;;;;;;;;;;;31.55;47.84;101008.94;4840197;28;98378;-68
2022/08/25 08:20:44;;;;;;;;;;;;;;;32.02;47.25;101002.13;4860715;28;98401;-68
2022/08/25 08:23:10;;;;;;;;;;;;;;;32.48;46.37;101009.59;4868016;28;98772;-67
2022/08/25 08:25:36;;;;;;;;;;;;;;;32.89;45.81;101008.22;4850998;28;111500;-69
2022/08/25 08:28:02;;;;;;;;;;;;;;;33.32;45.39;101003.16;4839662;28;98985;-62
2022/08/25 08:30:29;;;;;;;;;;;;;;;33.78;44.51;101004.81;4868953;28;98060;-61
2022/08/25 08:32:55;;;;;;;;;;;;;;;34.26;43.37;100989.16;4889579;28;99500;-61
2022/08/25 08:35:21;;;;;;;;;;;;;;;34.73;42.31;100990.16;4877983;28;98140;-62
2022/08/25 08:37:47;;;;;;;;;;;;;;;35.20;41.87;100990.31;4866994;28;127472;-61
2022/08/25 08:40:14;;;;;;;;;;;;;;;35.60;41.28;100993.28;4857073;28;98348;-62
2022/08/25 08:43:05;;;;;;;;;;;;;;;36.11;40.55;100991.94;4835274;28;98077;-61
2022/08/25 08:45:33;;;;;;;;;;;;;;;36.70;40.14;100987.53;4874165;28;98529;-62
2022/08/25 08:48:09;;;;;;;;;;;;;;;37.19;39.24;100984.84;4892132;28;99285;-62
2022/08/25 08:50:34;;;;;;;;;;;;;;;37.55;37.96;100978.34;4883406;28;97879;-62
2022/08/25 08:53:08;;;;;;;;;;;;;;;38.00;38.03;100963.50;4866722;28;100247;-62
2022/08/25 08:55:52;;;;;;;;;;;;;;;38.52;37.32;100963.22;4845501;28;98693;-62
2022/08/25 08:58:22;;;;;;;;;;;;;;;39.25;35.92;100966.16;4874096;28;98651;-62
2022/08/25 09:00:54;;;;;;;;;;;;;;;39.74;34.90;100964.94;4888021;28;98444;-62
2022/08/25 09:03:35;;;;;;;;;;;;;;;40.17;34.30;100964.19;4849423;28;99060;-62
2022/08/25 09:06:11;;;;;;;;;;;;;;;40.58;33.88;100962.22;4834530;28;99845;-62
2022/08/25 09:08:38;;;;;;;;;;;;;;;41.20;33.21;100959.31;4885544;28;99495;-62
2022/08/25 09:11:13;;;;;;;;;;;;;;;41.71;32.08;100957.19;4852530;28;99236;-62
2022/08/25 09:14:23;;;;;;;;;;;;;;;41.84;32.19;100947.28;4870820;28;98271;-70
2022/08/25 09:16:59;;;;;;;;;;;;;;;42.51;30.63;100941.81;4867871;28;100804;-70
2022/08/25 09:20:11;;;;;;;;;;;;;;;42.77;30.19;100939.38;4873120;28;114998;-63
2022/08/25 09:23:03;;;;;;;;;;;;;;;43.17;29.81;100932.56;4855725;28;98041;-70
2022/08/25 09:25:44;;;;;;;;;;;;;;;43.28;29.77;100922.22;4840295;28;98132;-62
2022/08/25 09:28:30;;;;;;;;;;;;;;;42.94;29.40;100923.53;4853322;28;98399;-62
2022/08/25 09:31:19;;;;;;;;;;;;;;;40.61;31.50;100909.69;4855000;28;98139;-62
2022/08/25 09:33:46;;;;;;;;;;;;;;;40.62;31.22;100914.84;4864963;28;98045;-62
2022/08/25 09:36:12;;;;;;;;;;;;;;;40.48;31.26;100902.09;4838332;28;100349;-69
2022/08/25 09:38:39;;;;;;;;;;;;;;;41.19;30.95;100903.28;4860156;28;116189;-63
2022/08/25 09:41:06;;;;;;;;;;;;;;;42.08;30.26;100907.00;4840665;28;99012;-62
2022/08/25 09:43:33;;;;;;;;;;;;;;;42.90;28.89;100911.59;4854411;28;98463;-62
2022/08/25 09:45:59;;;;;;;;;;;;;;;43.72;28.27;100898.88;4876719;28;98577;-62
2022/08/25 09:48:27;;;;;;;;;;;;;;;44.44;27.72;100904.25;4876454;28;98145;-70
2022/08/25 09:51:00;;;;;;;;;;;;;;;45.16;27.33;100897.28;4857159;28;98868;-70
2022/08/25 09:53:27;;;;;;;;;;;;;;;45.79;26.41;100906.03;4831537;28;97942;-63
2022/08/25 09:56:06;;;;;;;;;;;;;;;45.09;26.90;100892.03;4884404;28;98624;-62
2022/08/25 09:58:33;;;;;;;;;;;;;;;42.83;28.47;100878.72;4822091;28;98587;-69
2022/08/25 10:01:12;;;;;;;;;;;;;;;44.13;27.22;100887.72;4884957;28;98049;-62
2022/08/25 10:03:53;;;;;;;;;;;;;;;45.27;26.39;100886.03;4863204;28;98366;-63
2022/08/25 10:06:21;;;;;;;;;;;;;;;45.96;25.93;100884.19;4869075;28;99713;-62
2022/08/25 10:08:47;;;;;;;;;;;;;;;46.38;25.09;100885.59;4851484;28;101545;-63
2022/08/25 10:11:36;;;;;;;;;;;;;;;45.86;26.24;100870.66;4880589;28;99283;-70
2022/08/25 10:14:41;;;;;;;;;;;;;;;44.35;27.00;100861.78;4858459;28;98190;-63
2022/08/25 10:17:15;;;;;;;;;;;;;;;44.90;26.50;100857.41;4859291;28;98743;-62
2022/08/25 10:19:42;;;;;;;;;;;;;;;42.24;28.74;100840.78;4856865;28;98874;-70
2022/08/25 10:22:09;;;;;;;;;;;;;;;40.92;29.79;100834.13;4877601;28;98377;-69
2022/08/25 10:24:36;;;;;;;;;;;;;;;41.50;29.06;100831.66;4886312;28;98521;-63
2022/08/25 10:27:10;;;;;;;;;;;;;;;40.52;30.08;100831.38;4844281;28;98628;-70
2022/08/25 10:30:05;;;;;;;;;;;;;;;39.18;31.22;100827.50;4864982;28;98680;-69
2022/08/25 10:32:39;;;;;;;;;;;;;;;38.35;32.16;100820.22;4869764;28;99542;-62
2022/08/25 10:35:19;;;;;;;;;;;;;;;39.90;30.47;100829.34;4890865;28;98447;-69
2022/08/25 10:37:49;;;;;;;;;;;;;;;39.86;30.52;100820.25;4836578;28;98231;-62
2022/08/25 10:40:26;;;;;;;;;;;;;;;38.77;31.99;100813.19;4870749;28;98399;-62
2022/08/25 10:43:06;;;;;;;;;;;;;;;38.33;32.20;100803.81;4842551;28;97858;-69
2022/08/25 10:45:42;;;;;;;;;;;;;;;37.80;32.96;100806.16;4862737;28;99316;-62
2022/08/25 10:48:25;;;;;;;;;;;;;;;38.31;32.25;100797.78;4861417;28;99061;-62
2022/08/25 10:51:24;;;;;;;;;;;;;;;38.95;31.33;100809.03;4853197;28;99869;-62
2022/08/25 10:54:19;;;;;;;;;;;;;;;40.94;29.58;100805.41;4860703;28;99400;-69
2022/08/25 10:57:22;;;;;;;;;;;;;;;41.99;28.72;100808.78;4831537;28;98021;-63
2022/08/25 11:00:11;;;;;;;;;;;;;;;43.46;27.71;100805.03;4866423;28;98632;-63
2022/08/25 11:02:49;;;;;;;;;;;;;;;43.19;27.73;100791.09;4868104;28;98461;-69
2022/08/25 11:05:44;;;;;;;;;;;;;;;42.99;28.08;100786.06;4868624;28;99692;-69
2022/08/25 11:08:13;;;;;;;;;;;;;;;43.12;27.72;100784.56;4851285;28;98040;-63
2022/08/25 11:10:42;;;;;;;;;;;;;;;43.32;27.63;100780.28;4875077;28;98106;-62
2022/08/25 11:13:20;;;;;;;;;;;;;;;41.08;29.54;100772.97;4816624;28;98510;-62
2022/08/25 11:15:55;;;;;;;;;;;;;;;39.65;30.86;100768.22;4875473;28;104997;-69
2022/08/25 11:18:21;;;;;;;;;;;;;;;38.85;31.36;100768.72;4818489;28;97984;-62
2022/08/25 11:21:17;;;;;;;;;;;;;;;39.52;30.59;100764.69;4857302;28;99451;-62
2022/08/25 11:23:54;;;;;;;;;;;;;;;40.08;30.50;100771.44;4850792;28;109538;-69
2022/08/25 11:26:28;;;;;;;;;;;;;;;40.34;30.48;100772.03;4839789;28;98257;-69
2022/08/25 11:29:04;;;;;;;;;;;;;;;40.91;30.04;100773.25;4846431;28;97886;-70
2022/08/25 11:31:31;;;;;;;;;;;;;;;40.38;30.93;100764.97;4829557;28;100217;-70
2022/08/25 11:33:57;;;;;;;;;;;;;;;39.13;31.99;100766.91;4861525;28;100255;-62
2022/08/25 11:36:36;;;;;;;;;;;;;;;39.39;31.26;100770.41;4842802;28;98144;-63
2022/08/25 11:39:36;;;;;;;;;;;;;;;40.62;30.30;100768.03;4872919;28;98986;-63
2022/08/25 11:42:29;;;;;;;;;;;;;;;41.64;29.39;100758.28;4831876;28;103823;-70
2022/08/25 11:45:07;;;;;;;;;;;;;;;42.37;28.45;100759.28;4867519;28;98239;-70
2022/08/25 11:47:48;;;;;;;;;;;;;;;42.47;28.65;100751.50;4848471;28;98333;-70
2022/08/25 11:50:23;;;;;;;;;;;;;;;40.69;30.12;100755.66;4866809;28;98007;-62
2022/08/25 11:52:55;;;;;;;;;;;;;;;40.30;30.30;100749.59;4873613;28;98166;-70
2022/08/25 11:55:42;;;;;;;;;;;;;;;39.68;31.07;100741.94;4842904;28;98011;-70
2022/08/25 11:58:52;;;;;;;;;;;;;;;40.60;30.17;100749.97;4833776;28;97891;-70
2022/08/25 12:01:44;;;;;;;;;;;;;;;39.97;31.02;100738.81;4857701;28;98041;-62
2022/08/25 12:04:35;;;;;;;;;;;;;;;39.53;31.37;100738.06;4865067;28;98068;-69
2022/08/25 12:07:09;;;;;;;;;;;;;;;40.58;29.95;100732.72;4876861;28;98136;-63
2022/08/25 12:09:52;;;;;;;;;;;;;;;41.15;29.29;100733.06;4892694;28;98057;-70
2022/08/25 12:12:28;;;;;;;;;;;;;;;41.68;28.84;100730.59;4868936;28;97736;-63
2022/08/25 12:14:54;;;;;;;;;;;;;;;42.09;28.68;100721.78;4858001;28;97989;-63
2022/08/25 12:17:25;;;;;;;;;;;;;;;42.28;28.35;100726.13;4853565;28;127478;-69
2022/08/25 12:19:53;;;;;;;;;;;;;;;42.36;28.02;100718.03;4866063;28;98510;-63
2022/08/25 12:22:21;;;;;;;;;;;;;;;40.56;29.54;100719.09;4843258;28;97895;-63
2022/08/25 12:24:56;;;;;;;;;;;;;;;39.26;30.75;100707.69;4869788;28;98261;-62
2022/08/25 12:27:39;;;;;;;;;;;;;;;40.21;29.72;100708.03;4866517;28;113334;-69
2022/08/25 12:30:18;;;;;;;;;;;;;;;40.52;29.57;100700.69;4825853;28;98087;-69
2022/08/25 12:33:02;;;;;;;;;;;;;;;40.70;29.60;100693.03;4866773;28;97856;-63
2022/08/25 12:35:53;;;;;;;;;;;;;;;40.84;29.43;100700.13;4868105;28;99937;-69
2022/08/25 12:38:41;;;;;;;;;;;;;;;40.82;29.44;100699.78;4857578;28;98189;-63
2022/08/25 12:41:17;;;;;;;;;;;;;;;40.91;29.20;100699.00;4839601;28;98264;-62
2022/08/25 12:43:47;;;;;;;;;;;;;;;40.82;29.24;100705.44;4886335;28;98400;-70
2022/08/25 12:46:22;;;;;;;;;;;;;;;40.81;29.66;100691.78;4862242;28;98279;-62
2022/08/25 12:49:11;;;;;;;;;;;;;;;40.64;29.62;100694.94;4866263;28;98312;-63
2022/08/25 12:51:53;;;;;;;;;;;;;;;40.48;29.45;100696.00;4855683;28;99273;-63
2022/08/25 12:54:24;;;;;;;;;;;;;;;40.24;30.03;100706.28;4858257;28;98434;-70
2022/08/25 12:56:58;;;;;;;;;;;;;;;39.92;30.29;100699.91;4886863;28;98886;-70